sensor_id;sensor_type;location;lat;lon;timestamp;P1;durP1;ratioP1;P2;durP2;ratioP2
6282;SDS011;3174;53.486;9.568;2023-06-10T00:01:10;4.80;;;2.47;;
6282;SDS011;3174;53.486;9.568;2023-06-10T00:03:38;3.93;;;1.90;;
6282;SDS011;3174;53.486;9.568;2023-06-10T00:06:07;3.67;;;2.30;;
6282;SDS011;3174;53.486;9.568;2023-06-10T00:08:35;3.20;;;1.80;;
6282;SDS011;3174;53.486;9.568;2023-06-10T00:11:04;5.10;;;2.20;;
6282;SDS011;3174;53.486;9.568;2023-06-10T00:13:32;4.20;;;2.07;;
6282;SDS011;3174;53.486;9.568;2023-06-10T00:16:01;5.17;;;2.20;;
6282;SDS011;3174;53.486;9.568;2023-06-10T00:18:29;3.87;;;2.10;;
6282;SDS011;3174;53.486;9.568;2023-06-10T00:20:58;3.57;;;1.87;;
6282;SDS011;3174;53.486;9.568;2023-06-10T00:23:30;6.77;;;2.43;;
6282;SDS011;3174;53.486;9.568;2023-06-10T00:26:04;4.03;;;2.23;;
6282;SDS011;3174;53.486;9.568;2023-06-10T00:28:32;8.23;;;2.50;;
6282;SDS011;3174;53.486;9.568;2023-06-10T00:31:02;4.47;;;2.00;;
6282;SDS011;3174;53.486;9.568;2023-06-10T00:33:47;5.03;;;2.30;;
6282;SDS011;3174;53.486;9.568;2023-06-10T00:36:48;5.13;;;2.07;;
6282;SDS011;3174;53.486;9.568;2023-06-10T00:39:31;7.57;;;2.40;;
6282;SDS011;3174;53.486;9.568;2023-06-10T00:42:02;5.73;;;2.60;;
6282;SDS011;3174;53.486;9.568;2023-06-10T00:44:37;4.23;;;2.20;;
6282;SDS011;3174;53.486;9.568;2023-06-10T00:47:08;5.97;;;2.50;;
6282;SDS011;3174;53.486;9.568;2023-06-10T00:49:37;2.40;;;1.70;;
6282;SDS011;3174;53.486;9.568;2023-06-10T00:52:05;4.50;;;2.40;;
6282;SDS011;3174;53.486;9.568;2023-06-10T00:54:34;3.23;;;2.10;;
6282;SDS011;3174;53.486;9.568;2023-06-10T00:57:02;7.27;;;2.70;;
6282;SDS011;3174;53.486;9.568;2023-06-10T00:59:31;3.10;;;2.13;;
6282;SDS011;3174;53.486;9.568;2023-06-10T01:01:59;6.80;;;3.17;;
6282;SDS011;3174;53.486;9.568;2023-06-10T01:04:30;4.63;;;1.97;;
6282;SDS011;3174;53.486;9.568;2023-06-10T01:07:00;4.60;;;2.47;;
6282;SDS011;3174;53.486;9.568;2023-06-10T01:09:37;4.07;;;2.10;;
6282;SDS011;3174;53.486;9.568;2023-06-10T01:12:10;3.83;;;2.13;;
6282;SDS011;3174;53.486;9.568;2023-06-10T01:14:41;5.17;;;2.47;;
6282;SDS011;3174;53.486;9.568;2023-06-10T01:17:11;4.97;;;2.53;;
6282;SDS011;3174;53.486;9.568;2023-06-10T01:19:54;6.27;;;2.47;;
6282;SDS011;3174;53.486;9.568;2023-06-10T01:22:24;2.80;;;2.10;;
6282;SDS011;3174;53.486;9.568;2023-06-10T01:24:54;4.67;;;2.20;;
6282;SDS011;3174;53.486;9.568;2023-06-10T01:27:26;4.00;;;2.00;;
6282;SDS011;3174;53.486;9.568;2023-06-10T01:29:58;4.50;;;2.43;;
6282;SDS011;3174;53.486;9.568;2023-06-10T01:32:32;6.10;;;2.50;;
6282;SDS011;3174;53.486;9.568;2023-06-10T01:35:02;8.33;;;2.50;;
6282;SDS011;3174;53.486;9.568;2023-06-10T01:37:32;4.80;;;2.27;;
6282;SDS011;3174;53.486;9.568;2023-06-10T01:40:01;9.50;;;2.57;;
6282;SDS011;3174;53.486;9.568;2023-06-10T01:42:32;4.57;;;1.90;;
6282;SDS011;3174;53.486;9.568;2023-06-10T01:45:00;5.37;;;1.90;;
6282;SDS011;3174;53.486;9.568;2023-06-10T01:47:29;5.83;;;2.10;;
6282;SDS011;3174;53.486;9.568;2023-06-10T01:49:57;4.60;;;2.20;;
6282;SDS011;3174;53.486;9.568;2023-06-10T01:52:25;6.10;;;2.27;;
6282;SDS011;3174;53.486;9.568;2023-06-10T01:54:54;4.00;;;2.17;;
6282;SDS011;3174;53.486;9.568;2023-06-10T01:57:22;8.30;;;2.10;;
6282;SDS011;3174;53.486;9.568;2023-06-10T01:59:50;3.17;;;1.83;;
6282;SDS011;3174;53.486;9.568;2023-06-10T02:02:18;3.63;;;1.67;;
6282;SDS011;3174;53.486;9.568;2023-06-10T02:04:48;4.23;;;2.23;;
6282;SDS011;3174;53.486;9.568;2023-06-10T02:07:16;4.07;;;2.00;;
6282;SDS011;3174;53.486;9.568;2023-06-10T02:09:44;2.93;;;1.90;;
6282;SDS011;3174;53.486;9.568;2023-06-10T02:12:14;2.67;;;1.70;;
6282;SDS011;3174;53.486;9.568;2023-06-10T02:14:43;2.90;;;1.93;;
6282;SDS011;3174;53.486;9.568;2023-06-10T02:17:11;2.63;;;1.80;;
6282;SDS011;3174;53.486;9.568;2023-06-10T02:19:41;3.53;;;1.60;;
6282;SDS011;3174;53.486;9.568;2023-06-10T02:22:09;3.63;;;1.97;;
6282;SDS011;3174;53.486;9.568;2023-06-10T02:24:37;2.90;;;1.70;;
6282;SDS011;3174;53.486;9.568;2023-06-10T02:27:06;4.97;;;2.10;;
6282;SDS011;3174;53.486;9.568;2023-06-10T02:29:35;3.90;;;1.77;;
6282;SDS011;3174;53.486;9.568;2023-06-10T02:32:03;2.63;;;1.77;;
6282;SDS011;3174;53.486;9.568;2023-06-10T02:34:36;2.40;;;1.60;;
6282;SDS011;3174;53.486;9.568;2023-06-10T02:37:04;3.33;;;1.90;;
6282;SDS011;3174;53.486;9.568;2023-06-10T02:39:32;4.93;;;2.07;;
6282;SDS011;3174;53.486;9.568;2023-06-10T02:42:00;4.10;;;1.50;;
6282;SDS011;3174;53.486;9.568;2023-06-10T02:44:28;6.30;;;1.80;;
6282;SDS011;3174;53.486;9.568;2023-06-10T02:46:57;2.97;;;1.60;;
6282;SDS011;3174;53.486;9.568;2023-06-10T02:49:26;4.67;;;1.70;;
6282;SDS011;3174;53.486;9.568;2023-06-10T02:51:54;4.43;;;2.00;;
6282;SDS011;3174;53.486;9.568;2023-06-10T02:54:23;3.83;;;2.07;;
6282;SDS011;3174;53.486;9.568;2023-06-10T02:56:51;9.70;;;2.10;;
6282;SDS011;3174;53.486;9.568;2023-06-10T02:59:22;5.97;;;1.97;;
6282;SDS011;3174;53.486;9.568;2023-06-10T03:01:50;5.23;;;2.50;;
6282;SDS011;3174;53.486;9.568;2023-06-10T03:04:19;5.67;;;2.03;;
6282;SDS011;3174;53.486;9.568;2023-06-10T03:06:49;3.23;;;1.70;;
6282;SDS011;3174;53.486;9.568;2023-06-10T03:09:17;4.40;;;2.03;;
6282;SDS011;3174;53.486;9.568;2023-06-10T03:11:45;2.67;;;1.80;;
6282;SDS011;3174;53.486;9.568;2023-06-10T03:14:13;3.13;;;1.53;;
6282;SDS011;3174;53.486;9.568;2023-06-10T03:16:41;4.20;;;1.60;;
6282;SDS011;3174;53.486;9.568;2023-06-10T03:19:09;2.53;;;1.40;;
6282;SDS011;3174;53.486;9.568;2023-06-10T03:21:38;4.50;;;2.10;;
6282;SDS011;3174;53.486;9.568;2023-06-10T03:24:07;2.90;;;1.40;;
6282;SDS011;3174;53.486;9.568;2023-06-10T03:26:37;3.70;;;1.40;;
6282;SDS011;3174;53.486;9.568;2023-06-10T03:29:05;4.77;;;1.60;;
6282;SDS011;3174;53.486;9.568;2023-06-10T03:31:33;7.10;;;1.90;;
6282;SDS011;3174;53.486;9.568;2023-06-10T03:34:03;4.30;;;1.80;;
6282;SDS011;3174;53.486;9.568;2023-06-10T03:36:31;4.87;;;1.70;;
6282;SDS011;3174;53.486;9.568;2023-06-10T03:39:01;3.37;;;1.73;;
6282;SDS011;3174;53.486;9.568;2023-06-10T03:41:29;3.20;;;1.43;;
6282;SDS011;3174;53.486;9.568;2023-06-10T03:43:58;2.20;;;1.70;;
6282;SDS011;3174;53.486;9.568;2023-06-10T03:46:26;2.87;;;1.53;;
6282;SDS011;3174;53.486;9.568;2023-06-10T03:48:54;3.83;;;1.90;;
6282;SDS011;3174;53.486;9.568;2023-06-10T03:51:23;4.23;;;1.70;;
6282;SDS011;3174;53.486;9.568;2023-06-10T03:53:51;4.90;;;1.50;;
6282;SDS011;3174;53.486;9.568;2023-06-10T03:56:21;2.37;;;1.50;;
6282;SDS011;3174;53.486;9.568;2023-06-10T03:58:49;5.33;;;1.63;;
6282;SDS011;3174;53.486;9.568;2023-06-10T04:01:17;3.37;;;1.70;;
6282;SDS011;3174;53.486;9.568;2023-06-10T04:03:47;3.23;;;1.53;;
6282;SDS011;3174;53.486;9.568;2023-06-10T04:06:17;2.93;;;1.50;;
6282;SDS011;3174;53.486;9.568;2023-06-10T04:08:45;2.83;;;1.60;;
6282;SDS011;3174;53.486;9.568;2023-06-10T04:11:14;4.27;;;1.70;;
6282;SDS011;3174;53.486;9.568;2023-06-10T04:13:43;2.53;;;1.60;;
6282;SDS011;3174;53.486;9.568;2023-06-10T04:16:11;4.03;;;1.60;;
6282;SDS011;3174;53.486;9.568;2023-06-10T04:18:39;2.90;;;1.57;;
6282;SDS011;3174;53.486;9.568;2023-06-10T04:21:08;5.77;;;2.07;;
6282;SDS011;3174;53.486;9.568;2023-06-10T04:23:36;2.90;;;1.57;;
6282;SDS011;3174;53.486;9.568;2023-06-10T04:26:05;4.63;;;1.60;;
6282;SDS011;3174;53.486;9.568;2023-06-10T04:28:33;6.33;;;2.10;;
6282;SDS011;3174;53.486;9.568;2023-06-10T04:31:03;3.43;;;1.50;;
6282;SDS011;3174;53.486;9.568;2023-06-10T04:33:31;3.53;;;1.50;;
6282;SDS011;3174;53.486;9.568;2023-06-10T04:35:59;3.47;;;1.70;;
6282;SDS011;3174;53.486;9.568;2023-06-10T04:38:27;2.80;;;1.50;;
6282;SDS011;3174;53.486;9.568;2023-06-10T04:40:57;3.83;;;1.50;;
6282;SDS011;3174;53.486;9.568;2023-06-10T04:43:25;3.23;;;1.70;;
6282;SDS011;3174;53.486;9.568;2023-06-10T04:45:54;3.50;;;1.70;;
6282;SDS011;3174;53.486;9.568;2023-06-10T04:48:24;3.70;;;1.57;;
6282;SDS011;3174;53.486;9.568;2023-06-10T04:50:52;2.07;;;1.40;;
6282;SDS011;3174;53.486;9.568;2023-06-10T04:53:20;4.80;;;1.47;;
6282;SDS011;3174;53.486;9.568;2023-06-10T04:55:48;2.80;;;1.63;;
6282;SDS011;3174;53.486;9.568;2023-06-10T04:58:16;6.17;;;1.63;;
6282;SDS011;3174;53.486;9.568;2023-06-10T05:00:44;3.33;;;1.73;;
6282;SDS011;3174;53.486;9.568;2023-06-10T05:03:12;3.37;;;1.10;;
6282;SDS011;3174;53.486;9.568;2023-06-10T05:05:42;2.50;;;1.40;;
6282;SDS011;3174;53.486;9.568;2023-06-10T05:08:10;3.63;;;1.60;;
6282;SDS011;3174;53.486;9.568;2023-06-10T05:10:38;3.20;;;1.50;;
6282;SDS011;3174;53.486;9.568;2023-06-10T05:13:06;3.50;;;1.40;;
6282;SDS011;3174;53.486;9.568;2023-06-10T05:15:34;3.27;;;1.40;;
6282;SDS011;3174;53.486;9.568;2023-06-10T05:18:02;3.90;;;1.73;;
6282;SDS011;3174;53.486;9.568;2023-06-10T05:20:30;3.87;;;1.50;;
6282;SDS011;3174;53.486;9.568;2023-06-10T05:22:59;3.47;;;1.40;;
6282;SDS011;3174;53.486;9.568;2023-06-10T05:25:28;2.60;;;1.33;;
6282;SDS011;3174;53.486;9.568;2023-06-10T05:27:58;5.00;;;1.43;;
6282;SDS011;3174;53.486;9.568;2023-06-10T05:30:26;3.30;;;1.50;;
6282;SDS011;3174;53.486;9.568;2023-06-10T05:32:54;2.97;;;1.30;;
6282;SDS011;3174;53.486;9.568;2023-06-10T05:35:22;4.67;;;1.50;;
6282;SDS011;3174;53.486;9.568;2023-06-10T05:37:51;3.87;;;1.43;;
6282;SDS011;3174;53.486;9.568;2023-06-10T05:40:20;5.60;;;1.67;;
6282;SDS011;3174;53.486;9.568;2023-06-10T05:42:48;2.67;;;1.47;;
6282;SDS011;3174;53.486;9.568;2023-06-10T05:45:16;5.97;;;1.40;;
6282;SDS011;3174;53.486;9.568;2023-06-10T05:47:44;3.73;;;1.30;;
6282;SDS011;3174;53.486;9.568;2023-06-10T05:50:12;3.33;;;1.40;;
6282;SDS011;3174;53.486;9.568;2023-06-10T05:52:40;2.37;;;1.30;;
6282;SDS011;3174;53.486;9.568;2023-06-10T05:55:08;4.03;;;1.70;;
6282;SDS011;3174;53.486;9.568;2023-06-10T05:57:40;2.57;;;1.10;;
6282;SDS011;3174;53.486;9.568;2023-06-10T06:00:09;3.53;;;1.30;;
6282;SDS011;3174;53.486;9.568;2023-06-10T06:02:38;2.47;;;1.00;;
6282;SDS011;3174;53.486;9.568;2023-06-10T06:05:06;3.73;;;1.80;;
6282;SDS011;3174;53.486;9.568;2023-06-10T06:07:35;2.13;;;1.37;;
6282;SDS011;3174;53.486;9.568;2023-06-10T06:10:04;5.00;;;1.70;;
6282;SDS011;3174;53.486;9.568;2023-06-10T06:12:32;4.73;;;1.53;;
6282;SDS011;3174;53.486;9.568;2023-06-10T06:15:01;4.43;;;1.80;;
6282;SDS011;3174;53.486;9.568;2023-06-10T06:17:30;7.23;;;1.90;;
6282;SDS011;3174;53.486;9.568;2023-06-10T06:19:58;3.63;;;1.73;;
6282;SDS011;3174;53.486;9.568;2023-06-10T06:22:26;2.67;;;1.50;;
6282;SDS011;3174;53.486;9.568;2023-06-10T06:24:54;5.23;;;1.50;;
6282;SDS011;3174;53.486;9.568;2023-06-10T06:27:22;4.23;;;1.50;;
6282;SDS011;3174;53.486;9.568;2023-06-10T06:29:50;4.17;;;1.50;;
6282;SDS011;3174;53.486;9.568;2023-06-10T06:32:20;3.63;;;1.40;;
6282;SDS011;3174;53.486;9.568;2023-06-10T06:34:49;2.70;;;1.53;;
6282;SDS011;3174;53.486;9.568;2023-06-10T06:37:21;5.20;;;1.70;;
6282;SDS011;3174;53.486;9.568;2023-06-10T06:39:50;3.57;;;1.43;;
6282;SDS011;3174;53.486;9.568;2023-06-10T06:42:18;1.80;;;1.27;;
6282;SDS011;3174;53.486;9.568;2023-06-10T06:44:46;5.03;;;2.00;;
6282;SDS011;3174;53.486;9.568;2023-06-10T06:47:14;3.30;;;1.37;;
6282;SDS011;3174;53.486;9.568;2023-06-10T06:49:45;11.90;;;1.87;;
6282;SDS011;3174;53.486;9.568;2023-06-10T06:52:13;3.33;;;1.60;;
6282;SDS011;3174;53.486;9.568;2023-06-10T06:54:42;3.97;;;1.40;;
6282;SDS011;3174;53.486;9.568;2023-06-10T06:57:10;3.37;;;1.30;;
6282;SDS011;3174;53.486;9.568;2023-06-10T06:59:38;5.17;;;1.67;;
6282;SDS011;3174;53.486;9.568;2023-06-10T07:02:06;4.03;;;1.63;;
6282;SDS011;3174;53.486;9.568;2023-06-10T07:04:34;4.30;;;1.43;;
6282;SDS011;3174;53.486;9.568;2023-06-10T07:07:04;4.50;;;1.60;;
6282;SDS011;3174;53.486;9.568;2023-06-10T07:09:32;3.57;;;1.60;;
6282;SDS011;3174;53.486;9.568;2023-06-10T07:12:00;3.90;;;1.50;;
6282;SDS011;3174;53.486;9.568;2023-06-10T07:14:28;4.77;;;1.60;;
6282;SDS011;3174;53.486;9.568;2023-06-10T07:16:56;5.20;;;1.77;;
6282;SDS011;3174;53.486;9.568;2023-06-10T07:19:24;5.17;;;1.40;;
6282;SDS011;3174;53.486;9.568;2023-06-10T07:21:52;4.70;;;1.50;;
6282;SDS011;3174;53.486;9.568;2023-06-10T07:24:21;3.90;;;1.80;;
6282;SDS011;3174;53.486;9.568;2023-06-10T07:26:49;3.87;;;1.67;;
6282;SDS011;3174;53.486;9.568;2023-06-10T07:29:18;2.80;;;1.43;;
6282;SDS011;3174;53.486;9.568;2023-06-10T07:31:46;4.50;;;1.50;;
6282;SDS011;3174;53.486;9.568;2023-06-10T07:34:14;6.00;;;1.73;;
6282;SDS011;3174;53.486;9.568;2023-06-10T07:36:42;2.10;;;1.23;;
6282;SDS011;3174;53.486;9.568;2023-06-10T07:39:10;3.80;;;1.77;;
6282;SDS011;3174;53.486;9.568;2023-06-10T07:41:39;4.30;;;1.70;;
6282;SDS011;3174;53.486;9.568;2023-06-10T07:44:07;3.28;;;1.35;;
6282;SDS011;3174;53.486;9.568;2023-06-10T07:46:35;4.60;;;1.63;;
6282;SDS011;3174;53.486;9.568;2023-06-10T07:49:03;2.55;;;1.33;;
6282;SDS011;3174;53.486;9.568;2023-06-10T07:51:31;2.92;;;1.67;;
6282;SDS011;3174;53.486;9.568;2023-06-10T07:53:59;3.88;;;1.50;;
6282;SDS011;3174;53.486;9.568;2023-06-10T07:56:27;6.82;;;1.90;;
6282;SDS011;3174;53.486;9.568;2023-06-10T07:58:56;8.15;;;2.28;;
6282;SDS011;3174;53.486;9.568;2023-06-10T08:01:24;2.95;;;1.55;;
6282;SDS011;3174;53.486;9.568;2023-06-10T08:03:52;5.10;;;1.58;;
6282;SDS011;3174;53.486;9.568;2023-06-10T08:06:21;4.53;;;1.77;;
6282;SDS011;3174;53.486;9.568;2023-06-10T08:08:49;2.10;;;1.38;;
6282;SDS011;3174;53.486;9.568;2023-06-10T08:11:17;4.70;;;1.70;;
6282;SDS011;3174;53.486;9.568;2023-06-10T08:13:45;4.68;;;1.75;;
6282;SDS011;3174;53.486;9.568;2023-06-10T08:16:14;3.75;;;1.67;;
6282;SDS011;3174;53.486;9.568;2023-06-10T08:18:42;3.97;;;1.77;;
6282;SDS011;3174;53.486;9.568;2023-06-10T08:21:10;3.05;;;1.40;;
6282;SDS011;3174;53.486;9.568;2023-06-10T08:23:38;3.58;;;1.60;;
6282;SDS011;3174;53.486;9.568;2023-06-10T08:26:06;5.47;;;1.85;;
6282;SDS011;3174;53.486;9.568;2023-06-10T08:28:34;4.38;;;2.63;;
6282;SDS011;3174;53.486;9.568;2023-06-10T08:31:02;3.72;;;1.60;;
6282;SDS011;3174;53.486;9.568;2023-06-10T08:33:34;4.72;;;1.80;;
6282;SDS011;3174;53.486;9.568;2023-06-10T08:36:03;3.42;;;1.60;;
6282;SDS011;3174;53.486;9.568;2023-06-10T08:38:33;5.32;;;2.22;;
6282;SDS011;3174;53.486;9.568;2023-06-10T08:41:02;3.38;;;1.55;;
6282;SDS011;3174;53.486;9.568;2023-06-10T08:43:37;5.10;;;1.65;;
6282;SDS011;3174;53.486;9.568;2023-06-10T08:46:08;4.60;;;1.60;;
6282;SDS011;3174;53.486;9.568;2023-06-10T08:48:39;2.20;;;1.70;;
6282;SDS011;3174;53.486;9.568;2023-06-10T08:51:10;2.92;;;1.80;;
6282;SDS011;3174;53.486;9.568;2023-06-10T08:53:42;4.93;;;1.90;;
6282;SDS011;3174;53.486;9.568;2023-06-10T08:56:16;5.05;;;1.90;;
6282;SDS011;3174;53.486;9.568;2023-06-10T08:58:45;3.15;;;1.77;;
6282;SDS011;3174;53.486;9.568;2023-06-10T09:01:13;4.45;;;1.70;;
6282;SDS011;3174;53.486;9.568;2023-06-10T09:03:44;2.97;;;1.60;;
6282;SDS011;3174;53.486;9.568;2023-06-10T09:06:12;6.70;;;2.20;;
6282;SDS011;3174;53.486;9.568;2023-06-10T09:08:41;4.80;;;1.95;;
6282;SDS011;3174;53.486;9.568;2023-06-10T09:11:11;4.75;;;1.90;;
6282;SDS011;3174;53.486;9.568;2023-06-10T09:13:42;5.07;;;1.50;;
6282;SDS011;3174;53.486;9.568;2023-06-10T09:16:10;4.82;;;1.88;;
6282;SDS011;3174;53.486;9.568;2023-06-10T09:18:39;3.33;;;1.70;;
6282;SDS011;3174;53.486;9.568;2023-06-10T09:21:12;6.85;;;1.98;;
6282;SDS011;3174;53.486;9.568;2023-06-10T09:23:40;5.57;;;1.95;;
6282;SDS011;3174;53.486;9.568;2023-06-10T09:26:08;7.93;;;2.08;;
6282;SDS011;3174;53.486;9.568;2023-06-10T09:28:37;6.63;;;2.13;;
6282;SDS011;3174;53.486;9.568;2023-06-10T09:31:06;6.82;;;2.00;;
6282;SDS011;3174;53.486;9.568;2023-06-10T09:33:36;3.67;;;1.90;;
6282;SDS011;3174;53.486;9.568;2023-06-10T09:36:05;5.47;;;1.95;;
6282;SDS011;3174;53.486;9.568;2023-06-10T09:38:35;5.22;;;2.00;;
6282;SDS011;3174;53.486;9.568;2023-06-10T09:41:04;3.97;;;1.55;;
6282;SDS011;3174;53.486;9.568;2023-06-10T09:43:39;3.38;;;2.00;;
6282;SDS011;3174;53.486;9.568;2023-06-10T09:46:13;3.53;;;1.77;;
6282;SDS011;3174;53.486;9.568;2023-06-10T09:48:43;5.32;;;2.17;;
6282;SDS011;3174;53.486;9.568;2023-06-10T09:51:12;5.97;;;2.15;;
6282;SDS011;3174;53.486;9.568;2023-06-10T09:53:42;3.58;;;1.70;;
6282;SDS011;3174;53.486;9.568;2023-06-10T09:56:10;2.85;;;1.98;;
6282;SDS011;3174;53.486;9.568;2023-06-10T09:58:39;2.70;;;1.67;;
6282;SDS011;3174;53.486;9.568;2023-06-10T10:01:10;9.23;;;1.83;;
6282;SDS011;3174;53.486;9.568;2023-06-10T10:03:44;3.55;;;1.73;;
6282;SDS011;3174;53.486;9.568;2023-06-10T10:06:14;5.25;;;2.20;;
6282;SDS011;3174;53.486;9.568;2023-06-10T10:08:44;3.53;;;1.98;;
6282;SDS011;3174;53.486;9.568;2023-06-10T10:11:14;3.58;;;2.13;;
6282;SDS011;3174;53.486;9.568;2023-06-10T10:13:45;4.82;;;2.10;;
6282;SDS011;3174;53.486;9.568;2023-06-10T10:16:16;4.32;;;1.98;;
6282;SDS011;3174;53.486;9.568;2023-06-10T10:18:47;3.67;;;1.92;;
6282;SDS011;3174;53.486;9.568;2023-06-10T10:21:21;3.70;;;1.92;;
6282;SDS011;3174;53.486;9.568;2023-06-10T10:23:53;5.15;;;2.38;;
6282;SDS011;3174;53.486;9.568;2023-06-10T10:26:26;4.43;;;2.78;;
6282;SDS011;3174;53.486;9.568;2023-06-10T10:28:58;4.25;;;2.00;;
6282;SDS011;3174;53.486;9.568;2023-06-10T10:31:34;4.45;;;2.33;;
6282;SDS011;3174;53.486;9.568;2023-06-10T10:34:04;3.03;;;1.90;;
6282;SDS011;3174;53.486;9.568;2023-06-10T10:36:34;6.57;;;2.50;;
6282;SDS011;3174;53.486;9.568;2023-06-10T10:39:05;5.63;;;2.22;;
6282;SDS011;3174;53.486;9.568;2023-06-10T10:41:34;2.85;;;1.80;;
6282;SDS011;3174;53.486;9.568;2023-06-10T10:44:04;3.63;;;2.08;;
6282;SDS011;3174;53.486;9.568;2023-06-10T10:46:41;5.53;;;1.95;;
6282;SDS011;3174;53.486;9.568;2023-06-10T10:49:12;5.43;;;2.20;;
6282;SDS011;3174;53.486;9.568;2023-06-10T10:51:54;4.95;;;2.40;;
6282;SDS011;3174;53.486;9.568;2023-06-10T10:54:31;3.97;;;2.15;;
6282;SDS011;3174;53.486;9.568;2023-06-10T10:57:10;5.70;;;2.05;;
6282;SDS011;3174;53.486;9.568;2023-06-10T10:59:51;2.90;;;2.05;;
6282;SDS011;3174;53.486;9.568;2023-06-10T11:02:32;5.18;;;2.10;;
6282;SDS011;3174;53.486;9.568;2023-06-10T11:05:02;3.95;;;2.30;;
6282;SDS011;3174;53.486;9.568;2023-06-10T11:07:31;5.40;;;2.17;;
6282;SDS011;3174;53.486;9.568;2023-06-10T11:10:02;5.82;;;2.42;;
6282;SDS011;3174;53.486;9.568;2023-06-10T11:12:49;6.45;;;2.20;;
6282;SDS011;3174;53.486;9.568;2023-06-10T11:15:19;4.00;;;2.33;;
6282;SDS011;3174;53.486;9.568;2023-06-10T11:20:55;4.38;;;2.30;;
6282;SDS011;3174;53.486;9.568;2023-06-10T11:23:41;4.68;;;2.10;;
6282;SDS011;3174;53.486;9.568;2023-06-10T11:29:07;4.25;;;2.78;;
6282;SDS011;3174;53.486;9.568;2023-06-10T11:31:46;3.63;;;2.35;;
6282;SDS011;3174;53.486;9.568;2023-06-10T11:34:23;2.60;;;2.15;;
6282;SDS011;3174;53.486;9.568;2023-06-10T11:36:53;4.70;;;2.72;;
6282;SDS011;3174;53.486;9.568;2023-06-10T11:39:21;3.70;;;2.60;;
6282;SDS011;3174;53.486;9.568;2023-06-10T11:41:54;4.60;;;2.25;;
6282;SDS011;3174;53.486;9.568;2023-06-10T11:44:22;3.92;;;2.58;;
6282;SDS011;3174;53.486;9.568;2023-06-10T11:46:55;3.70;;;2.17;;
6282;SDS011;3174;53.486;9.568;2023-06-10T11:49:23;3.42;;;2.47;;
6282;SDS011;3174;53.486;9.568;2023-06-10T11:51:52;4.35;;;2.50;;
6282;SDS011;3174;53.486;9.568;2023-06-10T11:54:20;3.58;;;2.20;;
6282;SDS011;3174;53.486;9.568;2023-06-10T11:56:48;6.78;;;2.83;;
6282;SDS011;3174;53.486;9.568;2023-06-10T11:59:17;3.65;;;2.53;;
6282;SDS011;3174;53.486;9.568;2023-06-10T12:01:45;6.70;;;2.45;;
6282;SDS011;3174;53.486;9.568;2023-06-10T12:04:14;4.80;;;2.40;;
6282;SDS011;3174;53.486;9.568;2023-06-10T12:06:45;4.05;;;2.35;;
6282;SDS011;3174;53.486;9.568;2023-06-10T12:09:15;4.22;;;2.53;;
6282;SDS011;3174;53.486;9.568;2023-06-10T12:11:52;7.80;;;2.90;;
6282;SDS011;3174;53.486;9.568;2023-06-10T12:17:23;3.83;;;3.30;;
6282;SDS011;3174;53.486;9.568;2023-06-10T12:20:04;4.10;;;2.50;;
6282;SDS011;3174;53.486;9.568;2023-06-10T12:22:36;5.05;;;2.60;;
6282;SDS011;3174;53.486;9.568;2023-06-10T12:25:05;3.45;;;2.72;;
6282;SDS011;3174;53.486;9.568;2023-06-10T12:27:35;6.35;;;2.40;;
6282;SDS011;3174;53.486;9.568;2023-06-10T12:30:05;5.30;;;2.70;;
6282;SDS011;3174;53.486;9.568;2023-06-10T12:32:35;4.25;;;2.67;;
6282;SDS011;3174;53.486;9.568;2023-06-10T12:35:04;4.28;;;3.00;;
6282;SDS011;3174;53.486;9.568;2023-06-10T12:37:34;5.70;;;2.90;;
6282;SDS011;3174;53.486;9.568;2023-06-10T12:40:08;5.03;;;2.50;;
6282;SDS011;3174;53.486;9.568;2023-06-10T12:42:36;5.90;;;2.67;;
6282;SDS011;3174;53.486;9.568;2023-06-10T12:45:07;4.28;;;2.88;;
6282;SDS011;3174;53.486;9.568;2023-06-10T12:47:37;4.38;;;2.63;;
6282;SDS011;3174;53.486;9.568;2023-06-10T12:50:06;6.72;;;2.90;;
6282;SDS011;3174;53.486;9.568;2023-06-10T12:52:35;4.18;;;2.40;;
6282;SDS011;3174;53.486;9.568;2023-06-10T12:55:04;6.78;;;3.30;;
6282;SDS011;3174;53.486;9.568;2023-06-10T12:57:33;5.15;;;2.85;;
6282;SDS011;3174;53.486;9.568;2023-06-10T13:00:01;4.95;;;3.20;;
6282;SDS011;3174;53.486;9.568;2023-06-10T13:02:36;7.00;;;3.22;;
6282;SDS011;3174;53.486;9.568;2023-06-10T13:05:04;4.72;;;3.38;;
6282;SDS011;3174;53.486;9.568;2023-06-10T13:07:32;5.70;;;3.30;;
6282;SDS011;3174;53.486;9.568;2023-06-10T13:10:00;4.30;;;2.95;;
6282;SDS011;3174;53.486;9.568;2023-06-10T13:12:29;3.85;;;3.10;;
6282;SDS011;3174;53.486;9.568;2023-06-10T13:15:13;5.05;;;2.95;;
6282;SDS011;3174;53.486;9.568;2023-06-10T13:17:43;4.82;;;3.00;;
6282;SDS011;3174;53.486;9.568;2023-06-10T13:20:12;4.85;;;3.42;;
6282;SDS011;3174;53.486;9.568;2023-06-10T13:22:40;5.38;;;3.28;;
6282;SDS011;3174;53.486;9.568;2023-06-10T13:25:08;8.00;;;3.40;;
6282;SDS011;3174;53.486;9.568;2023-06-10T13:27:38;4.82;;;3.20;;
6282;SDS011;3174;53.486;9.568;2023-06-10T13:30:06;4.32;;;3.17;;
6282;SDS011;3174;53.486;9.568;2023-06-10T13:32:36;5.38;;;3.40;;
6282;SDS011;3174;53.486;9.568;2023-06-10T13:35:06;3.97;;;3.58;;
6282;SDS011;3174;53.486;9.568;2023-06-10T13:37:35;4.88;;;3.60;;
6282;SDS011;3174;53.486;9.568;2023-06-10T13:40:04;4.68;;;3.28;;
6282;SDS011;3174;53.486;9.568;2023-06-10T13:42:34;5.45;;;3.53;;
6282;SDS011;3174;53.486;9.568;2023-06-10T13:45:03;6.63;;;3.63;;
6282;SDS011;3174;53.486;9.568;2023-06-10T13:47:33;5.55;;;3.30;;
6282;SDS011;3174;53.486;9.568;2023-06-10T13:50:03;4.97;;;3.53;;
6282;SDS011;3174;53.486;9.568;2023-06-10T13:52:33;5.55;;;3.80;;
6282;SDS011;3174;53.486;9.568;2023-06-10T13:55:01;4.40;;;3.63;;
6282;SDS011;3174;53.486;9.568;2023-06-10T13:57:29;5.10;;;3.55;;
6282;SDS011;3174;53.486;9.568;2023-06-10T13:59:57;4.13;;;3.70;;
6282;SDS011;3174;53.486;9.568;2023-06-10T14:02:25;6.22;;;3.20;;
6282;SDS011;3174;53.486;9.568;2023-06-10T14:04:54;4.63;;;3.17;;
6282;SDS011;3174;53.486;9.568;2023-06-10T14:07:22;6.20;;;3.15;;
6282;SDS011;3174;53.486;9.568;2023-06-10T14:09:51;5.63;;;3.80;;
6282;SDS011;3174;53.486;9.568;2023-06-10T14:12:19;5.32;;;3.85;;
6282;SDS011;3174;53.486;9.568;2023-06-10T14:14:47;7.07;;;3.60;;
6282;SDS011;3174;53.486;9.568;2023-06-10T14:17:15;9.05;;;3.20;;
6282;SDS011;3174;53.486;9.568;2023-06-10T14:19:43;3.92;;;3.45;;
6282;SDS011;3174;53.486;9.568;2023-06-10T14:22:11;7.47;;;3.33;;
6282;SDS011;3174;53.486;9.568;2023-06-10T14:24:39;4.18;;;3.58;;
6282;SDS011;3174;53.486;9.568;2023-06-10T14:27:08;4.15;;;3.00;;
6282;SDS011;3174;53.486;9.568;2023-06-10T14:29:36;4.78;;;3.60;;
6282;SDS011;3174;53.486;9.568;2023-06-10T14:32:04;6.63;;;3.55;;
6282;SDS011;3174;53.486;9.568;2023-06-10T14:34:41;4.18;;;3.30;;
6282;SDS011;3174;53.486;9.568;2023-06-10T14:37:10;3.97;;;3.13;;
6282;SDS011;3174;53.486;9.568;2023-06-10T14:39:38;5.78;;;3.15;;
6282;SDS011;3174;53.486;9.568;2023-06-10T14:42:10;4.43;;;3.47;;
6282;SDS011;3174;53.486;9.568;2023-06-10T14:44:38;3.80;;;3.40;;
6282;SDS011;3174;53.486;9.568;2023-06-10T14:47:06;4.90;;;3.58;;
6282;SDS011;3174;53.486;9.568;2023-06-10T14:49:34;4.53;;;3.03;;
6282;SDS011;3174;53.486;9.568;2023-06-10T14:52:03;4.75;;;3.50;;
6282;SDS011;3174;53.486;9.568;2023-06-10T14:54:31;4.60;;;3.55;;
6282;SDS011;3174;53.486;9.568;2023-06-10T14:56:59;4.60;;;3.20;;
6282;SDS011;3174;53.486;9.568;2023-06-10T14:59:28;5.45;;;3.35;;
6282;SDS011;3174;53.486;9.568;2023-06-10T15:01:56;7.43;;;3.92;;
6282;SDS011;3174;53.486;9.568;2023-06-10T15:04:27;7.80;;;3.63;;
6282;SDS011;3174;53.486;9.568;2023-06-10T15:06:55;4.47;;;3.58;;
6282;SDS011;3174;53.486;9.568;2023-06-10T15:09:24;4.05;;;3.00;;
6282;SDS011;3174;53.486;9.568;2023-06-10T15:11:55;4.75;;;3.00;;
6282;SDS011;3174;53.486;9.568;2023-06-10T15:14:23;4.18;;;2.97;;
6282;SDS011;3174;53.486;9.568;2023-06-10T15:16:53;4.50;;;3.15;;
6282;SDS011;3174;53.486;9.568;2023-06-10T15:19:22;5.22;;;2.70;;
6282;SDS011;3174;53.486;9.568;2023-06-10T15:21:52;8.55;;;3.22;;
6282;SDS011;3174;53.486;9.568;2023-06-10T15:24:20;6.18;;;3.20;;
6282;SDS011;3174;53.486;9.568;2023-06-10T15:26:48;7.18;;;3.17;;
6282;SDS011;3174;53.486;9.568;2023-06-10T15:29:17;4.18;;;3.30;;
6282;SDS011;3174;53.486;9.568;2023-06-10T15:31:45;4.82;;;2.95;;
6282;SDS011;3174;53.486;9.568;2023-06-10T15:34:14;6.28;;;3.17;;
6282;SDS011;3174;53.486;9.568;2023-06-10T15:36:42;5.78;;;2.47;;
6282;SDS011;3174;53.486;9.568;2023-06-10T15:39:10;6.25;;;3.08;;